NCAR-RAP Real-Time Weather Data

Output produced by METARs form (06 May 2021  17:04 UTC)
found at http://weather.rap.ucar.edu/surface/
 
KMAF 061653Z 13015KT 10SM CLR 23/09 A3027 RMK AO2 SLP213 T02280094
KMAF 061553Z 11018KT 10SM CLR 21/09 A3026 RMK AO2 SLP211 T02110089
KMAF 061453Z 12013KT 10SM CLR 19/09 A3027 RMK AO2 SLP215 T01890089 51021
KMAF 061353Z 09015KT 10SM CLR 16/08 A3025 RMK AO2 SLP209 T01560083
KMAF 061253Z 08017KT 10SM CLR 14/08 A3023 RMK AO2 SLP202 T01440083
KMAF 061153Z 06012KT 10SM CLR 14/09 A3020 RMK AO2 SLP189 T01440089 10200 20144 53037
KMAF 061053Z 04010KT 10SM CLR 16/09 A3016 RMK AO2 SLP172 T01560094
KMAF 060953Z AUTO 16008KT 10SM CLR 17/10 A3010 RMK AO2 SLP153 T01720100
KMAF 060853Z AUTO 18012KT 10SM CLR 18/10 A3008 RMK AO2 SLP145 T01830100 58004
KMAF 060753Z AUTO 17010KT 10SM CLR 18/09 A3009 RMK AO2 SLP149 T01830089
KMAF 060653Z AUTO 18009KT 10SM CLR 19/08 A3010 RMK AO2 SLP152 T01890078
KMAF 060553Z 18010KT 10SM CLR 19/06 A3010 RMK AO2 SLP152 T01940061 10278 20189 402890111 51008
KMAF 060453Z 16011KT 10SM CLR 19/06 A3010 RMK AO2 SLP155 T01940056
KMAF 060353Z 16008KT 10SM CLR 20/06 A3009 RMK AO2 SLP155 T02000061
KMAF 060253Z 15007KT 10SM CLR 21/07 A3007 RMK AO2 SLP149 T02110067 53010